sensor_id;sensor_type;location;lat;lon;timestamp;P1;durP1;ratioP1;P2;durP2;ratioP2
6209;SDS011;3138;52.550;13.148;2022-08-07T00:01:43;28.60;;;11.00;;
6209;SDS011;3138;52.550;13.148;2022-08-07T00:04:10;9.67;;;6.70;;
6209;SDS011;3138;52.550;13.148;2022-08-07T00:06:36;10.63;;;7.50;;
6209;SDS011;3138;52.550;13.148;2022-08-07T00:09:05;11.50;;;7.37;;
6209;SDS011;3138;52.550;13.148;2022-08-07T00:11:32;9.83;;;7.70;;
6209;SDS011;3138;52.550;13.148;2022-08-07T00:13:59;14.07;;;6.90;;
6209;SDS011;3138;52.550;13.148;2022-08-07T00:16:25;8.87;;;6.90;;
6209;SDS011;3138;52.550;13.148;2022-08-07T00:18:52;8.13;;;6.63;;
6209;SDS011;3138;52.550;13.148;2022-08-07T00:21:19;7.40;;;6.40;;
6209;SDS011;3138;52.550;13.148;2022-08-07T00:23:46;8.50;;;7.17;;
6209;SDS011;3138;52.550;13.148;2022-08-07T00:26:14;6.57;;;5.77;;
6209;SDS011;3138;52.550;13.148;2022-08-07T00:28:41;11.93;;;6.20;;
6209;SDS011;3138;52.550;13.148;2022-08-07T00:31:09;8.30;;;5.87;;
6209;SDS011;3138;52.550;13.148;2022-08-07T00:33:38;7.97;;;6.10;;
6209;SDS011;3138;52.550;13.148;2022-08-07T00:36:06;10.80;;;5.73;;
6209;SDS011;3138;52.550;13.148;2022-08-07T00:38:34;9.83;;;5.87;;
6209;SDS011;3138;52.550;13.148;2022-08-07T00:41:02;10.70;;;5.33;;
6209;SDS011;3138;52.550;13.148;2022-08-07T00:43:31;7.00;;;5.37;;
6209;SDS011;3138;52.550;13.148;2022-08-07T00:45:58;9.10;;;6.50;;
6209;SDS011;3138;52.550;13.148;2022-08-07T00:48:26;12.93;;;5.13;;
6209;SDS011;3138;52.550;13.148;2022-08-07T00:50:53;7.93;;;5.83;;
6209;SDS011;3138;52.550;13.148;2022-08-07T00:53:20;6.53;;;5.43;;
6209;SDS011;3138;52.550;13.148;2022-08-07T00:55:47;5.57;;;4.70;;
6209;SDS011;3138;52.550;13.148;2022-08-07T00:58:14;3.90;;;3.60;;
6209;SDS011;3138;52.550;13.148;2022-08-07T01:00:42;12.43;;;5.30;;
6209;SDS011;3138;52.550;13.148;2022-08-07T01:03:09;17.60;;;4.57;;
6209;SDS011;3138;52.550;13.148;2022-08-07T01:05:36;7.13;;;4.33;;
6209;SDS011;3138;52.550;13.148;2022-08-07T01:08:04;4.60;;;4.20;;
6209;SDS011;3138;52.550;13.148;2022-08-07T01:10:31;7.80;;;4.77;;
6209;SDS011;3138;52.550;13.148;2022-08-07T01:12:57;8.73;;;4.33;;
6209;SDS011;3138;52.550;13.148;2022-08-07T01:15:24;5.00;;;4.20;;
6209;SDS011;3138;52.550;13.148;2022-08-07T01:17:53;7.17;;;4.90;;
6209;SDS011;3138;52.550;13.148;2022-08-07T01:20:20;6.57;;;4.27;;
6209;SDS011;3138;52.550;13.148;2022-08-07T01:22:57;10.83;;;4.30;;
6209;SDS011;3138;52.550;13.148;2022-08-07T01:25:24;5.63;;;3.07;;
6209;SDS011;3138;52.550;13.148;2022-08-07T01:27:52;10.50;;;4.13;;
6209;SDS011;3138;52.550;13.148;2022-08-07T01:30:21;4.07;;;3.77;;
6209;SDS011;3138;52.550;13.148;2022-08-07T01:32:49;5.73;;;4.00;;
6209;SDS011;3138;52.550;13.148;2022-08-07T01:35:16;5.67;;;3.73;;
6209;SDS011;3138;52.550;13.148;2022-08-07T01:37:43;4.20;;;3.80;;
6209;SDS011;3138;52.550;13.148;2022-08-07T01:40:12;5.17;;;3.83;;
6209;SDS011;3138;52.550;13.148;2022-08-07T01:42:41;10.93;;;3.60;;
6209;SDS011;3138;52.550;13.148;2022-08-07T01:45:08;3.73;;;3.43;;
6209;SDS011;3138;52.550;13.148;2022-08-07T01:47:36;3.77;;;3.30;;
6209;SDS011;3138;52.550;13.148;2022-08-07T01:50:03;16.43;;;3.30;;
6209;SDS011;3138;52.550;13.148;2022-08-07T01:52:30;4.10;;;3.80;;
6209;SDS011;3138;52.550;13.148;2022-08-07T01:54:59;5.10;;;4.20;;
6209;SDS011;3138;52.550;13.148;2022-08-07T01:57:28;3.60;;;3.27;;
6209;SDS011;3138;52.550;13.148;2022-08-07T02:00:00;4.13;;;3.30;;
6209;SDS011;3138;52.550;13.148;2022-08-07T02:02:30;5.90;;;3.27;;
6209;SDS011;3138;52.550;13.148;2022-08-07T02:05:02;3.67;;;3.27;;
6209;SDS011;3138;52.550;13.148;2022-08-07T02:07:32;4.97;;;3.47;;
6209;SDS011;3138;52.550;13.148;2022-08-07T02:10:03;5.37;;;3.30;;
6209;SDS011;3138;52.550;13.148;2022-08-07T02:12:34;8.07;;;4.07;;
6209;SDS011;3138;52.550;13.148;2022-08-07T02:15:04;4.00;;;3.70;;
6209;SDS011;3138;52.550;13.148;2022-08-07T02:17:33;3.37;;;3.07;;
6209;SDS011;3138;52.550;13.148;2022-08-07T02:20:01;3.73;;;3.40;;
6209;SDS011;3138;52.550;13.148;2022-08-07T02:22:29;3.20;;;3.00;;
6209;SDS011;3138;52.550;13.148;2022-08-07T02:24:57;4.40;;;3.90;;
6209;SDS011;3138;52.550;13.148;2022-08-07T02:27:26;3.93;;;3.57;;
6209;SDS011;3138;52.550;13.148;2022-08-07T02:29:56;12.83;;;4.97;;
6209;SDS011;3138;52.550;13.148;2022-08-07T02:32:24;5.40;;;3.70;;
6209;SDS011;3138;52.550;13.148;2022-08-07T02:34:52;7.67;;;4.53;;
6209;SDS011;3138;52.550;13.148;2022-08-07T02:37:21;11.03;;;4.20;;
6209;SDS011;3138;52.550;13.148;2022-08-07T02:39:49;5.67;;;4.30;;
6209;SDS011;3138;52.550;13.148;2022-08-07T02:42:18;5.50;;;4.73;;
6209;SDS011;3138;52.550;13.148;2022-08-07T02:44:47;4.73;;;4.30;;
6209;SDS011;3138;52.550;13.148;2022-08-07T02:47:17;6.80;;;5.23;;
6209;SDS011;3138;52.550;13.148;2022-08-07T02:49:44;9.63;;;4.80;;
6209;SDS011;3138;52.550;13.148;2022-08-07T02:52:12;7.53;;;4.77;;
6209;SDS011;3138;52.550;13.148;2022-08-07T02:54:44;8.60;;;4.43;;
6209;SDS011;3138;52.550;13.148;2022-08-07T02:57:12;7.00;;;4.60;;
6209;SDS011;3138;52.550;13.148;2022-08-07T02:59:41;5.67;;;5.10;;
6209;SDS011;3138;52.550;13.148;2022-08-07T03:02:12;5.50;;;4.67;;
6209;SDS011;3138;52.550;13.148;2022-08-07T03:04:42;11.67;;;5.47;;
6209;SDS011;3138;52.550;13.148;2022-08-07T03:07:11;8.20;;;6.10;;
6209;SDS011;3138;52.550;13.148;2022-08-07T03:09:39;9.00;;;4.90;;
6209;SDS011;3138;52.550;13.148;2022-08-07T03:12:06;8.93;;;5.00;;
6209;SDS011;3138;52.550;13.148;2022-08-07T03:14:34;6.40;;;4.63;;
6209;SDS011;3138;52.550;13.148;2022-08-07T03:17:02;7.13;;;5.50;;
6209;SDS011;3138;52.550;13.148;2022-08-07T03:19:30;9.57;;;5.20;;
6209;SDS011;3138;52.550;13.148;2022-08-07T03:21:58;7.50;;;4.80;;
6209;SDS011;3138;52.550;13.148;2022-08-07T03:24:25;8.27;;;5.50;;
6209;SDS011;3138;52.550;13.148;2022-08-07T03:26:52;10.20;;;5.90;;
6209;SDS011;3138;52.550;13.148;2022-08-07T03:29:20;5.63;;;4.60;;
6209;SDS011;3138;52.550;13.148;2022-08-07T03:31:47;11.00;;;5.50;;
6209;SDS011;3138;52.550;13.148;2022-08-07T03:34:16;7.20;;;5.27;;
6209;SDS011;3138;52.550;13.148;2022-08-07T03:36:44;7.70;;;5.40;;
6209;SDS011;3138;52.550;13.148;2022-08-07T03:39:13;8.77;;;5.90;;
6209;SDS011;3138;52.550;13.148;2022-08-07T03:41:42;11.77;;;5.90;;
6209;SDS011;3138;52.550;13.148;2022-08-07T03:44:08;13.43;;;5.60;;
6209;SDS011;3138;52.550;13.148;2022-08-07T03:46:36;5.90;;;5.40;;
6209;SDS011;3138;52.550;13.148;2022-08-07T03:49:04;5.90;;;5.30;;
6209;SDS011;3138;52.550;13.148;2022-08-07T03:51:33;6.23;;;4.10;;
6209;SDS011;3138;52.550;13.148;2022-08-07T03:54:00;13.60;;;6.53;;
6209;SDS011;3138;52.550;13.148;2022-08-07T03:56:29;6.40;;;4.90;;
6209;SDS011;3138;52.550;13.148;2022-08-07T03:58:58;5.27;;;4.80;;
6209;SDS011;3138;52.550;13.148;2022-08-07T04:01:27;13.60;;;6.93;;
6209;SDS011;3138;52.550;13.148;2022-08-07T04:03:55;5.40;;;4.90;;
6209;SDS011;3138;52.550;13.148;2022-08-07T04:06:21;9.40;;;5.70;;
6209;SDS011;3138;52.550;13.148;2022-08-07T04:08:48;12.60;;;6.43;;
6209;SDS011;3138;52.550;13.148;2022-08-07T04:11:17;9.13;;;5.60;;
6209;SDS011;3138;52.550;13.148;2022-08-07T04:13:45;12.70;;;5.97;;
6209;SDS011;3138;52.550;13.148;2022-08-07T04:16:12;10.33;;;6.50;;
6209;SDS011;3138;52.550;13.148;2022-08-07T04:18:39;11.43;;;5.90;;
6209;SDS011;3138;52.550;13.148;2022-08-07T04:21:06;9.70;;;5.43;;
6209;SDS011;3138;52.550;13.148;2022-08-07T04:23:33;12.10;;;6.40;;
6209;SDS011;3138;52.550;13.148;2022-08-07T04:26:00;10.33;;;5.50;;
6209;SDS011;3138;52.550;13.148;2022-08-07T04:28:27;13.93;;;6.63;;
6209;SDS011;3138;52.550;13.148;2022-08-07T04:30:55;11.40;;;6.07;;
6209;SDS011;3138;52.550;13.148;2022-08-07T04:33:22;9.17;;;5.23;;
6209;SDS011;3138;52.550;13.148;2022-08-07T04:35:50;6.33;;;5.13;;
6209;SDS011;3138;52.550;13.148;2022-08-07T04:38:18;14.30;;;6.40;;
6209;SDS011;3138;52.550;13.148;2022-08-07T04:40:46;7.93;;;5.20;;
6209;SDS011;3138;52.550;13.148;2022-08-07T04:43:13;9.93;;;5.30;;
6209;SDS011;3138;52.550;13.148;2022-08-07T04:45:43;12.30;;;6.33;;
6209;SDS011;3138;52.550;13.148;2022-08-07T04:48:19;8.90;;;6.20;;
6209;SDS011;3138;52.550;13.148;2022-08-07T04:50:55;8.40;;;5.43;;
6209;SDS011;3138;52.550;13.148;2022-08-07T04:53:33;8.57;;;5.77;;
6209;SDS011;3138;52.550;13.148;2022-08-07T04:56:09;11.20;;;5.43;;
6209;SDS011;3138;52.550;13.148;2022-08-07T04:58:45;6.50;;;5.20;;
6209;SDS011;3138;52.550;13.148;2022-08-07T05:01:19;10.53;;;5.20;;
6209;SDS011;3138;52.550;13.148;2022-08-07T05:04:00;8.47;;;5.03;;
6209;SDS011;3138;52.550;13.148;2022-08-07T05:06:34;5.73;;;4.50;;
6209;SDS011;3138;52.550;13.148;2022-08-07T05:09:03;11.70;;;4.90;;
6209;SDS011;3138;52.550;13.148;2022-08-07T05:11:37;5.97;;;4.53;;
6209;SDS011;3138;52.550;13.148;2022-08-07T05:14:08;9.40;;;4.27;;
6209;SDS011;3138;52.550;13.148;2022-08-07T05:16:39;5.60;;;4.70;;
6209;SDS011;3138;52.550;13.148;2022-08-07T05:19:09;4.87;;;4.37;;
6209;SDS011;3138;52.550;13.148;2022-08-07T05:21:38;6.57;;;4.73;;
6209;SDS011;3138;52.550;13.148;2022-08-07T05:24:09;9.20;;;4.73;;
6209;SDS011;3138;52.550;13.148;2022-08-07T05:26:38;10.43;;;3.70;;
6209;SDS011;3138;52.550;13.148;2022-08-07T05:29:06;6.47;;;5.13;;
6209;SDS011;3138;52.550;13.148;2022-08-07T05:31:35;8.23;;;4.23;;
6209;SDS011;3138;52.550;13.148;2022-08-07T05:34:04;10.43;;;3.90;;
6209;SDS011;3138;52.550;13.148;2022-08-07T05:36:35;4.60;;;4.20;;
6209;SDS011;3138;52.550;13.148;2022-08-07T05:39:02;18.13;;;4.03;;
6209;SDS011;3138;52.550;13.148;2022-08-07T05:41:30;15.50;;;4.87;;
6209;SDS011;3138;52.550;13.148;2022-08-07T05:43:57;6.30;;;3.30;;
6209;SDS011;3138;52.550;13.148;2022-08-07T05:46:24;7.80;;;3.83;;
6209;SDS011;3138;52.550;13.148;2022-08-07T05:48:51;5.43;;;3.53;;
6209;SDS011;3138;52.550;13.148;2022-08-07T05:51:19;7.37;;;3.13;;
6209;SDS011;3138;52.550;13.148;2022-08-07T05:53:48;4.53;;;3.70;;
6209;SDS011;3138;52.550;13.148;2022-08-07T05:56:16;3.70;;;3.00;;
6209;SDS011;3138;52.550;13.148;2022-08-07T05:58:44;3.57;;;3.10;;
6209;SDS011;3138;52.550;13.148;2022-08-07T06:01:12;5.67;;;4.30;;
6209;SDS011;3138;52.550;13.148;2022-08-07T06:03:42;8.80;;;3.10;;
6209;SDS011;3138;52.550;13.148;2022-08-07T06:06:12;4.17;;;3.77;;
6209;SDS011;3138;52.550;13.148;2022-08-07T06:08:40;12.87;;;2.93;;
6209;SDS011;3138;52.550;13.148;2022-08-07T06:11:09;5.93;;;3.27;;
6209;SDS011;3138;52.550;13.148;2022-08-07T06:13:37;3.30;;;2.70;;
6209;SDS011;3138;52.550;13.148;2022-08-07T06:16:05;5.00;;;3.43;;
6209;SDS011;3138;52.550;13.148;2022-08-07T06:18:33;8.07;;;3.90;;
6209;SDS011;3138;52.550;13.148;2022-08-07T06:21:00;4.67;;;3.40;;
6209;SDS011;3138;52.550;13.148;2022-08-07T06:23:30;8.33;;;3.93;;
6209;SDS011;3138;52.550;13.148;2022-08-07T06:25:57;3.67;;;3.30;;
6209;SDS011;3138;52.550;13.148;2022-08-07T06:28:27;14.97;;;3.50;;
6209;SDS011;3138;52.550;13.148;2022-08-07T06:30:54;5.53;;;3.27;;
6209;SDS011;3138;52.550;13.148;2022-08-07T06:33:21;4.23;;;3.13;;
6209;SDS011;3138;52.550;13.148;2022-08-07T06:35:50;8.80;;;3.30;;
6209;SDS011;3138;52.550;13.148;2022-08-07T06:38:16;3.20;;;2.90;;
6209;SDS011;3138;52.550;13.148;2022-08-07T06:40:45;5.20;;;2.60;;
6209;SDS011;3138;52.550;13.148;2022-08-07T06:43:14;4.50;;;2.80;;
6209;SDS011;3138;52.550;13.148;2022-08-07T06:45:45;3.23;;;2.50;;
6209;SDS011;3138;52.550;13.148;2022-08-07T06:48:12;5.20;;;2.37;;
6209;SDS011;3138;52.550;13.148;2022-08-07T06:50:39;6.90;;;2.83;;
6209;SDS011;3138;52.550;13.148;2022-08-07T06:53:09;5.83;;;2.30;;
6209;SDS011;3138;52.550;13.148;2022-08-07T06:55:37;2.50;;;2.30;;
6209;SDS011;3138;52.550;13.148;2022-08-07T06:58:05;6.20;;;2.20;;
6209;SDS011;3138;52.550;13.148;2022-08-07T07:00:35;4.63;;;2.23;;
6209;SDS011;3138;52.550;13.148;2022-08-07T07:03:06;5.00;;;2.60;;
6209;SDS011;3138;52.550;13.148;2022-08-07T07:05:34;2.47;;;2.27;;
6209;SDS011;3138;52.550;13.148;2022-08-07T07:08:02;18.00;;;2.07;;
6209;SDS011;3138;52.550;13.148;2022-08-07T07:10:30;3.87;;;2.67;;
6209;SDS011;3138;52.550;13.148;2022-08-07T07:12:59;4.50;;;2.13;;
6209;SDS011;3138;52.550;13.148;2022-08-07T07:15:33;1.70;;;1.57;;
6209;SDS011;3138;52.550;13.148;2022-08-07T07:18:04;5.00;;;1.60;;
6209;SDS011;3138;52.550;13.148;2022-08-07T07:20:37;28.87;;;14.40;;
6209;SDS011;3138;52.550;13.148;2022-08-07T07:23:08;7.57;;;3.17;;
6209;SDS011;3138;52.550;13.148;2022-08-07T07:25:36;21.83;;;2.43;;
6209;SDS011;3138;52.550;13.148;2022-08-07T07:28:06;2.23;;;1.93;;
6209;SDS011;3138;52.550;13.148;2022-08-07T07:30:40;1.93;;;1.80;;
6209;SDS011;3138;52.550;13.148;2022-08-07T07:33:12;2.20;;;1.80;;
6209;SDS011;3138;52.550;13.148;2022-08-07T07:35:41;4.30;;;1.80;;
6209;SDS011;3138;52.550;13.148;2022-08-07T07:38:11;7.63;;;2.40;;
6209;SDS011;3138;52.550;13.148;2022-08-07T07:40:39;4.40;;;1.70;;
6209;SDS011;3138;52.550;13.148;2022-08-07T07:43:07;7.93;;;3.10;;
6209;SDS011;3138;52.550;13.148;2022-08-07T07:45:35;13.50;;;2.30;;
6209;SDS011;3138;52.550;13.148;2022-08-07T07:48:04;14.57;;;3.23;;
6209;SDS011;3138;52.550;13.148;2022-08-07T07:50:34;9.20;;;3.07;;
6209;SDS011;3138;52.550;13.148;2022-08-07T07:53:01;7.00;;;2.50;;
6209;SDS011;3138;52.550;13.148;2022-08-07T07:55:28;12.07;;;6.63;;
6209;SDS011;3138;52.550;13.148;2022-08-07T07:57:56;4.57;;;3.20;;
6209;SDS011;3138;52.550;13.148;2022-08-07T08:00:24;10.70;;;2.33;;
6209;SDS011;3138;52.550;13.148;2022-08-07T08:02:52;6.90;;;1.73;;
6209;SDS011;3138;52.550;13.148;2022-08-07T08:05:23;5.90;;;2.53;;
6209;SDS011;3138;52.550;13.148;2022-08-07T08:07:51;2.87;;;1.40;;
6209;SDS011;3138;52.550;13.148;2022-08-07T08:10:18;5.83;;;2.07;;
6209;SDS011;3138;52.550;13.148;2022-08-07T08:12:46;4.53;;;1.87;;
6209;SDS011;3138;52.550;13.148;2022-08-07T08:15:15;29.33;;;2.10;;
6209;SDS011;3138;52.550;13.148;2022-08-07T08:17:42;3.60;;;2.17;;
6209;SDS011;3138;52.550;13.148;2022-08-07T08:20:10;4.63;;;1.70;;
6209;SDS011;3138;52.550;13.148;2022-08-07T08:22:40;8.07;;;2.43;;
6209;SDS011;3138;52.550;13.148;2022-08-07T08:25:28;2.67;;;1.40;;
6209;SDS011;3138;52.550;13.148;2022-08-07T08:28:21;6.00;;;1.50;;
6209;SDS011;3138;52.550;13.148;2022-08-07T08:30:52;2.60;;;1.40;;
6209;SDS011;3138;52.550;13.148;2022-08-07T08:33:23;2.40;;;1.40;;
6209;SDS011;3138;52.550;13.148;2022-08-07T08:35:52;5.23;;;1.90;;
6209;SDS011;3138;52.550;13.148;2022-08-07T08:38:21;4.00;;;2.53;;
6209;SDS011;3138;52.550;13.148;2022-08-07T08:40:53;6.33;;;2.20;;
6209;SDS011;3138;52.550;13.148;2022-08-07T08:43:27;1.73;;;1.63;;
6209;SDS011;3138;52.550;13.148;2022-08-07T08:46:00;3.30;;;2.07;;
6209;SDS011;3138;52.550;13.148;2022-08-07T08:48:34;1.63;;;1.53;;
6209;SDS011;3138;52.550;13.148;2022-08-07T08:51:06;9.33;;;1.97;;
6209;SDS011;3138;52.550;13.148;2022-08-07T08:53:42;7.87;;;2.10;;
6209;SDS011;3138;52.550;13.148;2022-08-07T08:56:17;1.93;;;1.73;;
6209;SDS011;3138;52.550;13.148;2022-08-07T08:58:51;10.43;;;1.50;;
6209;SDS011;3138;52.550;13.148;2022-08-07T09:01:23;4.60;;;1.40;;
6209;SDS011;3138;52.550;13.148;2022-08-07T09:03:55;4.00;;;2.10;;
6209;SDS011;3138;52.550;13.148;2022-08-07T09:06:31;3.20;;;1.73;;
6209;SDS011;3138;52.550;13.148;2022-08-07T09:09:05;2.10;;;1.87;;
6209;SDS011;3138;52.550;13.148;2022-08-07T09:11:40;5.90;;;1.90;;
6209;SDS011;3138;52.550;13.148;2022-08-07T09:14:11;2.83;;;1.80;;
6209;SDS011;3138;52.550;13.148;2022-08-07T09:16:46;2.43;;;2.07;;
6209;SDS011;3138;52.550;13.148;2022-08-07T09:19:20;4.23;;;1.80;;
6209;SDS011;3138;52.550;13.148;2022-08-07T09:21:58;5.23;;;1.53;;
6209;SDS011;3138;52.550;13.148;2022-08-07T09:24:39;2.53;;;2.00;;
6209;SDS011;3138;52.550;13.148;2022-08-07T09:27:22;2.50;;;2.00;;
6209;SDS011;3138;52.550;13.148;2022-08-07T09:29:55;2.23;;;1.50;;
6209;SDS011;3138;52.550;13.148;2022-08-07T09:32:30;7.10;;;1.80;;
6209;SDS011;3138;52.550;13.148;2022-08-07T09:35:10;2.17;;;1.97;;
6209;SDS011;3138;52.550;13.148;2022-08-07T09:37:44;1.60;;;1.50;;
6209;SDS011;3138;52.550;13.148;2022-08-07T09:40:23;2.10;;;1.90;;
6209;SDS011;3138;52.550;13.148;2022-08-07T09:42:57;7.60;;;1.73;;
6209;SDS011;3138;52.550;13.148;2022-08-07T09:45:36;1.73;;;1.63;;
6209;SDS011;3138;52.550;13.148;2022-08-07T09:48:10;8.27;;;2.03;;
6209;SDS011;3138;52.550;13.148;2022-08-07T09:50:45;4.10;;;1.50;;
6209;SDS011;3138;52.550;13.148;2022-08-07T09:53:19;5.43;;;2.37;;
6209;SDS011;3138;52.550;13.148;2022-08-07T09:55:51;13.60;;;2.40;;
6209;SDS011;3138;52.550;13.148;2022-08-07T09:58:50;4.27;;;1.40;;
6209;SDS011;3138;52.550;13.148;2022-08-07T10:01:31;1.90;;;1.23;;
6209;SDS011;3138;52.550;13.148;2022-08-07T10:07:04;3.87;;;1.77;;
6209;SDS011;3138;52.550;13.148;2022-08-07T10:09:51;1.23;;;1.13;;
6209;SDS011;3138;52.550;13.148;2022-08-07T10:12:35;3.50;;;2.00;;
6209;SDS011;3138;52.550;13.148;2022-08-07T10:15:21;2.60;;;1.70;;
6209;SDS011;3138;52.550;13.148;2022-08-07T10:18:07;3.80;;;0.90;;
6209;SDS011;3138;52.550;13.148;2022-08-07T10:20:53;11.20;;;1.40;;
6209;SDS011;3138;52.550;13.148;2022-08-07T10:23:50;7.50;;;1.40;;
6209;SDS011;3138;52.550;13.148;2022-08-07T10:26:42;2.43;;;1.77;;
6209;SDS011;3138;52.550;13.148;2022-08-07T10:29:35;3.67;;;1.67;;
6209;SDS011;3138;52.550;13.148;2022-08-07T10:32:17;3.07;;;1.77;;
6209;SDS011;3138;52.550;13.148;2022-08-07T10:35:05;1.37;;;1.30;;
6209;SDS011;3138;52.550;13.148;2022-08-07T10:37:42;4.27;;;1.33;;
6209;SDS011;3138;52.550;13.148;2022-08-07T10:40:27;13.00;;;2.20;;
6209;SDS011;3138;52.550;13.148;2022-08-07T10:43:00;1.60;;;1.50;;
6209;SDS011;3138;52.550;13.148;2022-08-07T10:45:35;1.90;;;1.47;;
6209;SDS011;3138;52.550;13.148;2022-08-07T10:48:11;3.30;;;1.57;;
6209;SDS011;3138;52.550;13.148;2022-08-07T10:50:46;7.93;;;1.20;;
6209;SDS011;3138;52.550;13.148;2022-08-07T10:53:20;2.30;;;1.47;;
6209;SDS011;3138;52.550;13.148;2022-08-07T10:55:57;3.37;;;1.37;;
6209;SDS011;3138;52.550;13.148;2022-08-07T10:58:40;1.60;;;1.23;;
6209;SDS011;3138;52.550;13.148;2022-08-07T11:01:20;5.40;;;1.70;;
6209;SDS011;3138;52.550;13.148;2022-08-07T11:04:00;5.33;;;1.50;;
6209;SDS011;3138;52.550;13.148;2022-08-07T11:06:35;4.00;;;1.80;;
6209;SDS011;3138;52.550;13.148;2022-08-07T11:09:11;7.40;;;1.63;;
6209;SDS011;3138;52.550;13.148;2022-08-07T11:11:43;1.50;;;1.37;;
6209;SDS011;3138;52.550;13.148;2022-08-07T11:14:14;14.77;;;1.87;;
6209;SDS011;3138;52.550;13.148;2022-08-07T11:16:46;1.57;;;1.37;;
6209;SDS011;3138;52.550;13.148;2022-08-07T11:19:21;6.20;;;1.80;;
6209;SDS011;3138;52.550;13.148;2022-08-07T11:21:56;1.50;;;1.40;;
6209;SDS011;3138;52.550;13.148;2022-08-07T11:24:32;1.40;;;1.30;;
6209;SDS011;3138;52.550;13.148;2022-08-07T11:27:08;1.70;;;1.33;;
6209;SDS011;3138;52.550;13.148;2022-08-07T11:29:42;2.30;;;1.13;;
6209;SDS011;3138;52.550;13.148;2022-08-07T11:32:16;3.93;;;1.50;;
6209;SDS011;3138;52.550;13.148;2022-08-07T11:34:49;2.93;;;1.53;;
6209;SDS011;3138;52.550;13.148;2022-08-07T11:37:25;1.50;;;1.07;;
6209;SDS011;3138;52.550;13.148;2022-08-07T11:40:09;1.40;;;1.30;;
6209;SDS011;3138;52.550;13.148;2022-08-07T11:42:47;2.53;;;1.37;;
6209;SDS011;3138;52.550;13.148;2022-08-07T11:45:24;8.20;;;1.73;;
6209;SDS011;3138;52.550;13.148;2022-08-07T11:48:04;3.17;;;1.63;;
6209;SDS011;3138;52.550;13.148;2022-08-07T11:50:48;1.33;;;1.23;;
6209;SDS011;3138;52.550;13.148;2022-08-07T11:53:39;2.90;;;1.40;;
6209;SDS011;3138;52.550;13.148;2022-08-07T11:56:17;1.30;;;1.20;;
6209;SDS011;3138;52.550;13.148;2022-08-07T11:58:53;4.10;;;1.17;;
6209;SDS011;3138;52.550;13.148;2022-08-07T12:01:36;1.23;;;1.10;;
6209;SDS011;3138;52.550;13.148;2022-08-07T12:04:28;7.13;;;1.20;;
6209;SDS011;3138;52.550;13.148;2022-08-07T12:07:16;1.50;;;1.20;;
6209;SDS011;3138;52.550;13.148;2022-08-07T12:09:49;2.47;;;1.30;;
6209;SDS011;3138;52.550;13.148;2022-08-07T12:12:23;1.70;;;1.07;;
6209;SDS011;3138;52.550;13.148;2022-08-07T12:14:54;4.63;;;1.60;;
6209;SDS011;3138;52.550;13.148;2022-08-07T12:17:31;4.33;;;1.63;;
6209;SDS011;3138;52.550;13.148;2022-08-07T12:20:05;7.23;;;1.23;;
6209;SDS011;3138;52.550;13.148;2022-08-07T12:22:40;1.40;;;1.30;;
6209;SDS011;3138;52.550;13.148;2022-08-07T12:25:16;6.33;;;1.30;;
6209;SDS011;3138;52.550;13.148;2022-08-07T12:28:10;5.63;;;1.40;;
6209;SDS011;3138;52.550;13.148;2022-08-07T12:30:42;1.43;;;1.10;;
6209;SDS011;3138;52.550;13.148;2022-08-07T12:33:14;2.30;;;1.47;;
6209;SDS011;3138;52.550;13.148;2022-08-07T12:35:45;3.80;;;1.93;;
6209;SDS011;3138;52.550;13.148;2022-08-07T12:38:14;3.90;;;1.40;;
6209;SDS011;3138;52.550;13.148;2022-08-07T12:40:44;3.37;;;1.40;;
6209;SDS011;3138;52.550;13.148;2022-08-07T12:43:13;1.50;;;1.40;;
6209;SDS011;3138;52.550;13.148;2022-08-07T12:45:43;1.60;;;1.50;;
6209;SDS011;3138;52.550;13.148;2022-08-07T12:48:12;3.80;;;1.20;;
6209;SDS011;3138;52.550;13.148;2022-08-07T12:50:49;1.67;;;1.57;;
6209;SDS011;3138;52.550;13.148;2022-08-07T12:53:25;1.80;;;1.57;;
6209;SDS011;3138;52.550;13.148;2022-08-07T12:56:00;1.17;;;1.07;;
6209;SDS011;3138;52.550;13.148;2022-08-07T12:58:35;1.50;;;1.40;;
6209;SDS011;3138;52.550;13.148;2022-08-07T13:01:05;3.63;;;1.33;;
6209;SDS011;3138;52.550;13.148;2022-08-07T13:03:47;1.73;;;1.50;;
6209;SDS011;3138;52.550;13.148;2022-08-07T13:06:25;5.50;;;1.50;;
6209;SDS011;3138;52.550;13.148;2022-08-07T13:09:05;9.57;;;1.70;;
6209;SDS011;3138;52.550;13.148;2022-08-07T13:11:40;2.97;;;1.27;;
6209;SDS011;3138;52.550;13.148;2022-08-07T13:14:25;5.40;;;1.60;;
6209;SDS011;3138;52.550;13.148;2022-08-07T13:17:03;4.80;;;1.43;;
6209;SDS011;3138;52.550;13.148;2022-08-07T13:19:38;1.63;;;1.53;;
6209;SDS011;3138;52.550;13.148;2022-08-07T13:22:12;5.47;;;1.60;;
6209;SDS011;3138;52.550;13.148;2022-08-07T13:24:57;2.83;;;1.10;;
6209;SDS011;3138;52.550;13.148;2022-08-07T13:27:28;10.03;;;1.30;;
6209;SDS011;3138;52.550;13.148;2022-08-07T13:30:02;4.20;;;1.00;;
6209;SDS011;3138;52.550;13.148;2022-08-07T13:32:31;3.10;;;1.40;;
6209;SDS011;3138;52.550;13.148;2022-08-07T13:35:05;2.03;;;1.57;;
6209;SDS011;3138;52.550;13.148;2022-08-07T13:37:38;2.33;;;1.20;;
6209;SDS011;3138;52.550;13.148;2022-08-07T13:40:13;1.50;;;1.40;;
6209;SDS011;3138;52.550;13.148;2022-08-07T13:42:45;4.37;;;1.87;;
6209;SDS011;3138;52.550;13.148;2022-08-07T13:45:15;11.67;;;2.37;;
6209;SDS011;3138;52.550;13.148;2022-08-07T13:47:45;3.80;;;1.17;;
6209;SDS011;3138;52.550;13.148;2022-08-07T13:50:16;4.90;;;1.87;;
6209;SDS011;3138;52.550;13.148;2022-08-07T13:52:47;3.17;;;1.33;;
6209;SDS011;3138;52.550;13.148;2022-08-07T13:55:18;10.80;;;1.80;;
6209;SDS011;3138;52.550;13.148;2022-08-07T13:57:47;9.00;;;1.50;;
6209;SDS011;3138;52.550;13.148;2022-08-07T14:00:17;1.80;;;1.57;;
6209;SDS011;3138;52.550;13.148;2022-08-07T14:02:45;4.57;;;1.30;;
6209;SDS011;3138;52.550;13.148;2022-08-07T14:05:18;3.20;;;1.17;;
6209;SDS011;3138;52.550;13.148;2022-08-07T14:07:47;6.90;;;4.37;;
6209;SDS011;3138;52.550;13.148;2022-08-07T14:10:14;2.30;;;2.10;;
6209;SDS011;3138;52.550;13.148;2022-08-07T14:12:43;2.10;;;1.33;;
6209;SDS011;3138;52.550;13.148;2022-08-07T14:15:17;3.07;;;1.60;;
6209;SDS011;3138;52.550;13.148;2022-08-07T14:17:51;4.83;;;1.53;;
6209;SDS011;3138;52.550;13.148;2022-08-07T14:20:24;5.60;;;1.30;;
6209;SDS011;3138;52.550;13.148;2022-08-07T14:22:59;1.47;;;1.10;;
6209;SDS011;3138;52.550;13.148;2022-08-07T14:25:31;4.20;;;2.30;;
6209;SDS011;3138;52.550;13.148;2022-08-07T14:28:01;4.23;;;1.20;;
6209;SDS011;3138;52.550;13.148;2022-08-07T14:30:30;1.97;;;1.77;;
6209;SDS011;3138;52.550;13.148;2022-08-07T14:32:59;2.67;;;1.10;;
6209;SDS011;3138;52.550;13.148;2022-08-07T14:35:28;2.03;;;1.60;;
6209;SDS011;3138;52.550;13.148;2022-08-07T14:37:57;10.80;;;1.70;;
6209;SDS011;3138;52.550;13.148;2022-08-07T14:40:25;5.10;;;1.80;;
6209;SDS011;3138;52.550;13.148;2022-08-07T14:42:58;2.07;;;1.50;;
6209;SDS011;3138;52.550;13.148;2022-08-07T14:45:28;4.30;;;3.90;;
6209;SDS011;3138;52.550;13.148;2022-08-07T14:47:59;8.33;;;2.80;;
6209;SDS011;3138;52.550;13.148;2022-08-07T14:50:27;8.67;;;5.60;;
6209;SDS011;3138;52.550;13.148;2022-08-07T14:52:54;10.47;;;3.93;;
6209;SDS011;3138;52.550;13.148;2022-08-07T14:55:26;4.07;;;2.67;;
6209;SDS011;3138;52.550;13.148;2022-08-07T14:57:58;5.50;;;4.17;;
6209;SDS011;3138;52.550;13.148;2022-08-07T15:00:28;7.10;;;4.80;;
6209;SDS011;3138;52.550;13.148;2022-08-07T15:02:56;9.37;;;1.83;;
6209;SDS011;3138;52.550;13.148;2022-08-07T15:05:26;5.90;;;4.93;;
6209;SDS011;3138;52.550;13.148;2022-08-07T15:07:54;4.87;;;3.70;;
6209;SDS011;3138;52.550;13.148;2022-08-07T15:10:22;13.60;;;8.90;;
6209;SDS011;3138;52.550;13.148;2022-08-07T15:12:51;6.10;;;4.30;;
6209;SDS011;3138;52.550;13.148;2022-08-07T15:15:24;4.80;;;3.50;;
6209;SDS011;3138;52.550;13.148;2022-08-07T15:18:03;4.30;;;1.90;;
6209;SDS011;3138;52.550;13.148;2022-08-07T15:20:34;16.63;;;12.80;;
6209;SDS011;3138;52.550;13.148;2022-08-07T15:23:04;6.03;;;2.07;;
6209;SDS011;3138;52.550;13.148;2022-08-07T15:25:38;2.60;;;1.43;;
6209;SDS011;3138;52.550;13.148;2022-08-07T15:28:09;4.27;;;1.83;;